Europa — C6QK8 — position and weather

sailwx.info

Track history (hours):
 
Tides and Currents Weather Stations Pressure Air Temp Water Temp Dewpoint Dewpoint Depression Visibility Wind Speed Wind Dir Waves Ship Positions

Europa

Operator: Hapag-Lloyd Container Line

Last reported at 2017-Sep-20 00:30 UTC. Time now 2017-Sep-20 00:35 UTC.
Position N 51°09' W 004°28'.

Length 199 m; draft 6.2 m.

Type: Passenger vessel. MMSI: 308007000.

Date/timePositionNaut miles runAvg speedWind from/ knotsBaromVisibWave heightAir tempDewpointWater temp
2017-Sep-20 00:30N 51°09' W 004°28'713.3
2017-Sep-20 00:00N 51°05' W 004°36'612.6
2017-Sep-19 23:30N 51°01' W 004°44'612.8
2017-Sep-19 23:00N 50°58' W 004°53'612.6
2017-Sep-19 22:30N 50°54' W 005°01'612.6
2017-Sep-19 22:00N 50°50' W 005°09'612.5
2017-Sep-19 21:30N 50°46' W 005°16'612.5
2017-Sep-19 21:00N 50°43' W 005°24'612.5
2017-Sep-19 20:30N 50°39' W 005°32'612.7
2017-Sep-19 20:00N 50°35' W 005°40'613.0
2017-Sep-19 19:30N 50°31' W 005°48'713.0
2017-Sep-19 19:00N 50°27' W 005°56'713.8
2017-Sep-19 18:30N 50°22' W 006°03'816.8
2017-Sep-19 18:00N 50°15' W 006°12'917.1
2017-Sep-19 17:30N 50°08' W 006°19'917.7
2017-Sep-19 17:00N 50°00' W 006°25'812.6
2017-Sep-19 16:24N 49°53' W 006°27'28 2.2
2017-Sep-19 03:31N 49°53' W 005°43'110.3
2017-Sep-19 03:24N 49°54' W 005°41'410.5
2017-Sep-19 03:00N 49°56' W 005°36'4 8.4
2017-Sep-19 02:30N 49°58' W 005°31'2 3.2
2017-Sep-19 02:00N 49°59' W 005°28'2 4.0
2017-Sep-19 01:31N 49°60' W 005°26'2 3.8
2017-Sep-19 01:00N 49°59' W 005°23'3 4.4
2017-Sep-19 00:24N 49°57' W 005°21'3 4.9
2017-Sep-18 23:52N 49°55' W 005°18'2 5.5
2017-Sep-18 23:26N 49°54' W 005°15'2 5.0
2017-Sep-18 22:59N 49°53' W 005°11'2 3.7
2017-Sep-18 22:30N 49°53' W 005°09'2 4.2
2017-Sep-18 22:00N 49°54' W 005°06'2 4.5
2017-Sep-18 21:31N 49°55' W 005°03'2 4.7
2017-Sep-18 21:00N 49°57' W 005°01'2 4.9
2017-Sep-18 20:30N 49°59' W 004°59'2 4.7
2017-Sep-18 20:01N 50°02' W 004°59'2 4.7
2017-Sep-18 19:30N 50°04' W 004°59'2 4.1
2017-Sep-18 19:00N 50°06' W 005°01'2 4.7
2017-Sep-18 18:31N 50°08' W 005°01'2 3.3
2017-Sep-18 18:00N 50°09' W 005°04'0 0.1
2017-Sep-18 17:29N 50°09' W 005°03'0 0.0
2017-Sep-18 16:59N 50°09' W 005°03'0 0.0
2017-Sep-18 16:29N 50°09' W 005°03'0 0.0
2017-Sep-18 15:59N 50°09' W 005°03'0 0.0
2017-Sep-18 15:29N 50°09' W 005°03'0 0.0
2017-Sep-18 14:53N 50°09' W 005°03'0 0.0
2017-Sep-18 14:29N 50°09' W 005°03'0 0.0
2017-Sep-18 13:50N 50°09' W 005°03'0 0.0
2017-Sep-18 13:29N 50°09' W 005°03'0 0.0
2017-Sep-18 12:56N 50°09' W 005°03'0 0.0
2017-Sep-18 12:29N 50°09' W 005°03'0 0.0
2017-Sep-18 11:53N 50°09' W 005°03'0 0.0
2017-Sep-18 11:29N 50°09' W 005°03'0 0.0
2017-Sep-18 10:59N 50°09' W 005°03'0 0.0
2017-Sep-18 10:29N 50°09' W 005°03'0 0.0
2017-Sep-18 09:56N 50°09' W 005°03'0 0.0
2017-Sep-18 09:29N 50°09' W 005°03'0 0.0
2017-Sep-18 08:59N 50°09' W 005°03'0 0.0
2017-Sep-18 08:29N 50°09' W 005°03'0 0.0
2017-Sep-18 07:59N 50°09' W 005°03'0 0.0
2017-Sep-18 07:26N 50°09' W 005°03'0 0.2
2017-Sep-18 06:58N 50°09' W 005°04'1 2.7
2017-Sep-18 06:27N 50°09' W 005°02'4 9.6
2017-Sep-18 06:00N 50°05' W 004°60'612.0
2017-Sep-18 05:30N 50°02' W 004°51'713.1
2017-Sep-18 05:00N 49°60' W 004°42'612.9
2017-Sep-18 04:30N 49°57' W 004°33'511.0
2017-Sep-18 04:01N 49°55' W 004°25'4 7.9
2017-Sep-18 03:30N 49°53' W 004°19'3 6.8
2017-Sep-18 03:00N 49°52' W 004°14'3 7.0
2017-Sep-18 02:30N 49°51' W 004°09'4 7.1
2017-Sep-18 02:00N 49°49' W 004°04'4 7.5
2017-Sep-18 01:30N 49°48' W 003°59'5 9.1
2017-Sep-18 01:01N 49°46' W 003°52'612.9
2017-Sep-18 00:30N 49°44' W 003°43'713.3
2017-Sep-18 00:00N 49°41' W 003°34'511.0
2017-Sep-17 23:30N 49°38' W 003°27'611.8
2017-Sep-17 23:00N 49°34' W 003°19'611.6
2017-Sep-17 22:30N 49°31' W 003°13'101 2.1
2017-Sep-15 23:28N 50°14' W 000°51'713.3
2017-Sep-15 22:56N 50°17' W 000°41'612.4
2017-Sep-15 22:29N 50°19' W 000°32'612.4
2017-Sep-15 21:58N 50°21' W 000°23'612.7
2017-Sep-15 21:30N 50°23' W 000°14'612.5
2017-Sep-15 21:01N 50°25' W 000°05'612.4
2017-Sep-15 20:31N 50°28' E 000°03'612.5
2017-Sep-15 20:01N 50°30' E 000°12'612.6
2017-Sep-15 19:30N 50°32' E 000°22'612.5
2017-Sep-15 19:00N 50°34' E 000°31'612.0
2017-Sep-15 18:30N 50°37' E 000°39'611.9
2017-Sep-15 18:01N 50°41' E 000°46'611.6
2017-Sep-15 17:31N 50°44' E 000°54'611.5
2017-Sep-15 17:01N 50°47' E 001°02'611.6
2017-Sep-15 16:30N 50°50' E 001°09'612.6
2017-Sep-15 16:00N 50°54' E 001°17'917.5
2017-Sep-15 15:30N 51°01' E 001°26'918.5
2017-Sep-15 15:01N 51°08' E 001°36'918.5
2017-Sep-15 14:31N 51°14' E 001°46'918.0
2017-Sep-15 14:01N 51°22' E 001°55'917.3
2017-Sep-15 13:31N 51°29' E 002°03'816.8
2017-Sep-15 13:01N 51°35' E 002°13'816.5
2017-Sep-15 12:30N 51°41' E 002°21'6915.1
2017-Sep-15 07:58N 52°36' E 003°29'613.1
2017-Sep-15 07:30N 52°40' E 003°36'713.5
2017-Sep-15 07:00N 52°45' E 003°43'713.9
2017-Sep-15 06:30N 52°51' E 003°50'714.0
2017-Sep-15 06:00N 52°56' E 003°58'714.0
2017-Sep-15 05:30N 53°01' E 004°06'713.8
2017-Sep-15 05:00N 53°06' E 004°14'713.9
2017-Sep-15 04:30N 53°11' E 004°23'714.1
2017-Sep-15 04:00N 53°17' E 004°28'713.8
2017-Sep-15 03:30N 53°23' E 004°34'713.0
2017-Sep-15 03:00N 53°28' E 004°40'612.4
2017-Sep-15 02:30N 53°31' E 004°49'612.1
2017-Sep-15 02:00N 53°33' E 004°59'611.7
2017-Sep-15 01:30N 53°35' E 005°08'611.5
2017-Sep-15 00:58N 53°38' E 005°18'611.5
2017-Sep-15 00:28N 53°40' E 005°27'10113.1
2017-Sep-14 16:42N 54°01' E 008°15'211.3
2017-Sep-14 16:30N 53°60' E 008°18'714.0
2017-Sep-14 16:00N 53°59' E 008°30'713.4
2017-Sep-14 15:30N 53°56' E 008°40'611.7
2017-Sep-14 15:00N 53°51' E 008°46'612.3
2017-Sep-14 14:30N 53°51' E 008°57'713.1
2017-Sep-14 14:01N 53°53' E 009°07'1 2.3
2017-Sep-14 13:30N 53°54' E 009°09'1 2.0
2017-Sep-14 13:00N 53°54' E 009°10'4 8.0
2017-Sep-14 12:30N 53°57' E 009°14'4 8.1
2017-Sep-14 12:00N 54°01' E 009°18'4 8.4
2017-Sep-14 11:30N 54°05' E 009°19'4 8.0
2017-Sep-14 11:00N 54°09' E 009°21'1 2.8
2017-Sep-14 10:30N 54°09' E 009°23'3 6.2
2017-Sep-14 10:00N 54°11' E 009°28'4 7.6
2017-Sep-14 09:29N 54°12' E 009°34'25 0.8
2017-Sep-13 04:01N 54°24' E 010°12'010.1
2017-Sep-13 04:00N 54°24' E 010°12'613.1
2017-Sep-13 03:30N 54°30' E 010°17'510.8
2017-Sep-13 03:00N 54°32' E 010°26'612.2
2017-Sep-13 02:30N 54°35' E 010°35'613.0
2017-Sep-13 02:00N 54°35' E 010°46'713.2
2017-Sep-13 01:30N 54°36' E 010°58'713.1
2017-Sep-13 01:00N 54°36' E 011°09'815.1
2017-Sep-13 00:30N 54°33' E 011°21'816.6
2017-Sep-13 00:00N 54°30' E 011°34'815.5
2017-Sep-12 23:31N 54°27' E 011°46'815.6
2017-Sep-12 23:00N 54°26' E 011°59'713.9
2017-Sep-12 22:30N 54°29' E 012°11'915.7
2017-Sep-12 21:56N 54°37' E 012°15'1016.4
2017-Sep-12 21:17N 54°46' E 012°26'616.2
2017-Sep-12 20:55N 54°51' E 012°31'716.3
2017-Sep-12 20:30N 54°57' E 012°37'816.4
2017-Sep-12 20:00N 55°05' E 012°38'816.5
2017-Sep-12 19:30N 55°13' E 012°38'816.3
2017-Sep-12 19:01N 55°21' E 012°38'816.0
2017-Sep-12 18:31N 55°29' E 012°41'713.2
2017-Sep-12 18:00N 55°36' E 012°42'611.9
2017-Sep-12 17:30N 55°42' E 012°41'3 5.4
2017-Sep-12 17:00N 55°42' E 012°36'1 1.5
2017-Sep-12 16:29N 55°41' E 012°36'0 0.0
2017-Sep-12 15:59N 55°41' E 012°36'0 0.0
2017-Sep-12 15:29N 55°41' E 012°36'0 0.0
2017-Sep-12 14:59N 55°41' E 012°36'0 0.0
2017-Sep-12 14:29N 55°41' E 012°36'0 0.0
2017-Sep-12 13:59N 55°41' E 012°36'0 0.0
2017-Sep-12 13:29N 55°41' E 012°36'0 0.0
2017-Sep-12 12:59N 55°41' E 012°36'0 0.0
2017-Sep-12 12:29N 55°41' E 012°36'0 0.0
2017-Sep-12 11:59N 55°41' E 012°36'0 0.0
2017-Sep-12 11:29N 55°41' E 012°36'0 0.0
2017-Sep-12 10:59N 55°41' E 012°36'0 0.0
2017-Sep-12 10:29N 55°41' E 012°36'0 0.0
2017-Sep-12 10:00N 55°41' E 012°36'1 1.1
2017-Sep-12 09:30N 55°42' E 012°36'2 4.5
2017-Sep-12 09:00N 55°44' E 012°39'613.0
2017-Sep-12 08:30N 55°50' E 012°42'815.6
2017-Sep-12 08:00N 55°57' E 012°37'714.4
2017-Sep-12 07:30N 56°05' E 012°36'816.5
2017-Sep-12 07:00N 56°10' E 012°25'815.8
2017-Sep-12 06:30N 56°14' E 012°13'815.0
2017-Sep-12 05:59N 56°19' E 012°02'4216.4
2017-Sep-12 03:26N 56°60' E 011°42'716.0
2017-Sep-12 02:58N 57°07' E 011°38'816.3
2017-Sep-12 02:30N 57°14' E 011°33'816.1
2017-Sep-12 02:00N 57°21' E 011°27'816.1
2017-Sep-12 01:30N 57°29' E 011°22'816.1
2017-Sep-12 01:00N 57°36' E 011°18'815.5
2017-Sep-12 00:30N 57°44' E 011°15'815.1
2017-Sep-12 00:00N 57°51' E 011°11'815.3
2017-Sep-11 23:30N 57°59' E 011°07'815.9
2017-Sep-11 23:00N 58°07' E 011°03'815.6
2017-Sep-11 22:30N 58°14' E 010°60'815.3
2017-Sep-11 22:00N 58°21' E 010°56'815.1
2017-Sep-11 21:30N 58°29' E 010°53'714.9
2017-Sep-11 21:00N 58°36' E 010°49'714.2
2017-Sep-11 20:31N 58°43' E 010°45'815.4
2017-Sep-11 20:01N 58°50' E 010°41'815.4
2017-Sep-11 19:31N 58°58' E 010°38'815.6
2017-Sep-11 19:00N 59°05' E 010°35'5 9.5
2017-Sep-11 18:30N 59°10' E 010°37'816.2
2017-Sep-11 18:01N 59°18' E 010°35'816.2
2017-Sep-11 17:30N 59°26' E 010°32'816.3
2017-Sep-11 17:00N 59°34' E 010°37'714.4
2017-Sep-11 16:30N 59°41' E 010°37'611.3
2017-Sep-11 16:00N 59°46' E 010°33'713.4
2017-Sep-11 15:30N 59°52' E 010°39'3 6.8
2017-Sep-11 15:00N 59°54' E 010°44'0 0.0
2017-Sep-11 14:30N 59°54' E 010°44'0 0.0
2017-Sep-11 14:00N 59°54' E 010°44'0 0.0
2017-Sep-11 13:24N 59°54' E 010°44'0 0.0
2017-Sep-11 13:00N 59°54' E 010°44'0 0.0
2017-Sep-11 12:30N 59°54' E 010°44'0 0.0
2017-Sep-11 12:00N 59°54' E 010°44'0 0.0
2017-Sep-11 11:30N 59°54' E 010°44'0 0.0
2017-Sep-11 11:00N 59°54' E 010°44'0 0.0
2017-Sep-11 10:30N 59°54' E 010°44'0 0.0
2017-Sep-11 10:00N 59°54' E 010°44'0 0.0
2017-Sep-11 09:30N 59°54' E 010°44'0 0.0
2017-Sep-11 09:00N 59°54' E 010°44'0 0.0
2017-Sep-11 08:30N 59°54' E 010°44'0 0.0
2017-Sep-11 08:00N 59°54' E 010°44'0 0.0
2017-Sep-11 07:30N 59°54' E 010°44'0 0.0
2017-Sep-11 07:00N 59°54' E 010°44'0 0.0
2017-Sep-11 06:30N 59°54' E 010°44'0 0.0
2017-Sep-11 06:00N 59°54' E 010°44'0 0.2
2017-Sep-11 05:30N 59°54' E 010°44'3 5.8
2017-Sep-11 05:00N 59°53' E 010°39'611.0
2017-Sep-11 04:30N 59°48' E 010°35'612.2
2017-Sep-11 04:00N 59°42' E 010°36'612.8
2017-Sep-11 03:30N 59°35' E 010°38'815.5
2017-Sep-11 03:00N 59°28' E 010°34'816.6
2017-Sep-11 02:30N 59°20' E 010°36'917.6
2017-Sep-11 02:00N 59°11' E 010°39'714.6
2017-Sep-11 01:31N 59°04' E 010°35'510.8
2017-Sep-11 01:00N 58°59' E 010°33'611.4
2017-Sep-11 00:30N 58°54' E 010°26'612.3
2017-Sep-11 00:00N 58°49' E 010°19'611.7
2017-Sep-10 23:30N 58°44' E 010°12'4312.5
2017-Sep-10 20:03N 58°09' E 009°25'112.1
2017-Sep-10 19:57N 58°08' E 009°24'16014.5
2017-Sep-10 08:55N 55°43' E 007°20'716.8
2017-Sep-10 08:30N 55°36' E 007°22'817.0
2017-Sep-10 08:00N 55°28' E 007°25'816.9
2017-Sep-10 07:30N 55°19' E 007°29'816.8
2017-Sep-10 07:00N 55°11' E 007°31'816.8
2017-Sep-10 06:30N 55°03' E 007°32'817.0
2017-Sep-10 06:00N 54°54' E 007°32'817.0
2017-Sep-10 05:30N 54°46' E 007°32'1117.3
2017-Sep-10 04:54N 54°35' E 007°32'1417.3
2017-Sep-10 04:03N 54°21' E 007°32'217.6
2017-Sep-10 03:58N 54°19' E 007°34'817.6
2017-Sep-10 03:30N 54°12' E 007°40'916.9
2017-Sep-10 03:00N 54°06' E 007°51'816.9
2017-Sep-10 02:30N 54°02' E 008°03'714.0
2017-Sep-10 02:00N 54°00' E 008°15'714.7
2017-Sep-10 01:30N 53°59' E 008°27'815.6
2017-Sep-10 01:00N 53°56' E 008°39'612.8
2017-Sep-10 00:31N 53°51' E 008°45'  
Track history (hours):
 
Tides and Currents Weather Stations Pressure Air Temp Water Temp Dewpoint Dewpoint Depression Visibility Wind Speed Wind Dir Waves Ship Positions

Europa

Operator: Hapag-Lloyd Container Line

Last reported at 2017-Sep-20 00:30 UTC. Time now 2017-Sep-20 00:35 UTC.
Position N 51°09' W 004°28'.

Length 199 m; draft 6.2 m.

Type: Passenger vessel. MMSI: 308007000.

Date/timePositionNaut miles runAvg speedWind from/ knotsBaromVisibWave heightAir tempDewpointWater temp
2017-Sep-20 00:30N 51°09' W 004°28'713.3
2017-Sep-20 00:00N 51°05' W 004°36'612.6
2017-Sep-19 23:30N 51°01' W 004°44'612.8
2017-Sep-19 23:00N 50°58' W 004°53'612.6
2017-Sep-19 22:30N 50°54' W 005°01'612.6
2017-Sep-19 22:00N 50°50' W 005°09'612.5
2017-Sep-19 21:30N 50°46' W 005°16'612.5
2017-Sep-19 21:00N 50°43' W 005°24'612.5
2017-Sep-19 20:30N 50°39' W 005°32'612.7
2017-Sep-19 20:00N 50°35' W 005°40'613.0
2017-Sep-19 19:30N 50°31' W 005°48'713.0
2017-Sep-19 19:00N 50°27' W 005°56'713.8
2017-Sep-19 18:30N 50°22' W 006°03'816.8
2017-Sep-19 18:00N 50°15' W 006°12'917.1
2017-Sep-19 17:30N 50°08' W 006°19'917.7
2017-Sep-19 17:00N 50°00' W 006°25'812.6
2017-Sep-19 16:24N 49°53' W 006°27'28 2.2
2017-Sep-19 03:31N 49°53' W 005°43'110.3
2017-Sep-19 03:24N 49°54' W 005°41'410.5
2017-Sep-19 03:00N 49°56' W 005°36'4 8.4
2017-Sep-19 02:30N 49°58' W 005°31'2 3.2
2017-Sep-19 02:00N 49°59' W 005°28'2 4.0
2017-Sep-19 01:31N 49°60' W 005°26'2 3.8
2017-Sep-19 01:00N 49°59' W 005°23'3 4.4
2017-Sep-19 00:24N 49°57' W 005°21'3 4.9
2017-Sep-18 23:52N 49°55' W 005°18'2 5.5
2017-Sep-18 23:26N 49°54' W 005°15'2 5.0
2017-Sep-18 22:59N 49°53' W 005°11'2 3.7
2017-Sep-18 22:30N 49°53' W 005°09'2 4.2
2017-Sep-18 22:00N 49°54' W 005°06'2 4.5
2017-Sep-18 21:31N 49°55' W 005°03'2 4.7
2017-Sep-18 21:00N 49°57' W 005°01'2 4.9
2017-Sep-18 20:30N 49°59' W 004°59'2 4.7
2017-Sep-18 20:01N 50°02' W 004°59'2 4.7
2017-Sep-18 19:30N 50°04' W 004°59'2 4.1
2017-Sep-18 19:00N 50°06' W 005°01'2 4.7
2017-Sep-18 18:31N 50°08' W 005°01'2 3.3
2017-Sep-18 18:00N 50°09' W 005°04'0 0.1
2017-Sep-18 17:29N 50°09' W 005°03'0 0.0
2017-Sep-18 16:59N 50°09' W 005°03'0 0.0
2017-Sep-18 16:29N 50°09' W 005°03'0 0.0
2017-Sep-18 15:59N 50°09' W 005°03'0 0.0
2017-Sep-18 15:29N 50°09' W 005°03'0 0.0
2017-Sep-18 14:53N 50°09' W 005°03'0 0.0
2017-Sep-18 14:29N 50°09' W 005°03'0 0.0
2017-Sep-18 13:50N 50°09' W 005°03'0 0.0
2017-Sep-18 13:29N 50°09' W 005°03'0 0.0
2017-Sep-18 12:56N 50°09' W 005°03'0 0.0
2017-Sep-18 12:29N 50°09' W 005°03'0 0.0
2017-Sep-18 11:53N 50°09' W 005°03'0 0.0
2017-Sep-18 11:29N 50°09' W 005°03'0 0.0
2017-Sep-18 10:59N 50°09' W 005°03'0 0.0
2017-Sep-18 10:29N 50°09' W 005°03'0 0.0
2017-Sep-18 09:56N 50°09' W 005°03'0 0.0
2017-Sep-18 09:29N 50°09' W 005°03'0 0.0
2017-Sep-18 08:59N 50°09' W 005°03'0 0.0
2017-Sep-18 08:29N 50°09' W 005°03'0 0.0
2017-Sep-18 07:59N 50°09' W 005°03'0 0.0
2017-Sep-18 07:26N 50°09' W 005°03'0 0.2
2017-Sep-18 06:58N 50°09' W 005°04'1 2.7
2017-Sep-18 06:27N 50°09' W 005°02'4 9.6
2017-Sep-18 06:00N 50°05' W 004°60'612.0
2017-Sep-18 05:30N 50°02' W 004°51'713.1
2017-Sep-18 05:00N 49°60' W 004°42'612.9
2017-Sep-18 04:30N 49°57' W 004°33'511.0
2017-Sep-18 04:01N 49°55' W 004°25'4 7.9
2017-Sep-18 03:30N 49°53' W 004°19'3 6.8
2017-Sep-18 03:00N 49°52' W 004°14'3 7.0
2017-Sep-18 02:30N 49°51' W 004°09'4 7.1
2017-Sep-18 02:00N 49°49' W 004°04'4 7.5
2017-Sep-18 01:30N 49°48' W 003°59'5 9.1
2017-Sep-18 01:01N 49°46' W 003°52'612.9
2017-Sep-18 00:30N 49°44' W 003°43'713.3
2017-Sep-18 00:00N 49°41' W 003°34'511.0
2017-Sep-17 23:30N 49°38' W 003°27'611.8
2017-Sep-17 23:00N 49°34' W 003°19'611.6
2017-Sep-17 22:30N 49°31' W 003°13'101 2.1
2017-Sep-15 23:28N 50°14' W 000°51'713.3
2017-Sep-15 22:56N 50°17' W 000°41'612.4
2017-Sep-15 22:29N 50°19' W 000°32'612.4
2017-Sep-15 21:58N 50°21' W 000°23'612.7
2017-Sep-15 21:30N 50°23' W 000°14'612.5
2017-Sep-15 21:01N 50°25' W 000°05'612.4
2017-Sep-15 20:31N 50°28' E 000°03'612.5
2017-Sep-15 20:01N 50°30' E 000°12'612.6
2017-Sep-15 19:30N 50°32' E 000°22'612.5
2017-Sep-15 19:00N 50°34' E 000°31'612.0
2017-Sep-15 18:30N 50°37' E 000°39'611.9
2017-Sep-15 18:01N 50°41' E 000°46'611.6
2017-Sep-15 17:31N 50°44' E 000°54'611.5
2017-Sep-15 17:01N 50°47' E 001°02'611.6
2017-Sep-15 16:30N 50°50' E 001°09'612.6
2017-Sep-15 16:00N 50°54' E 001°17'917.5
2017-Sep-15 15:30N 51°01' E 001°26'918.5
2017-Sep-15 15:01N 51°08' E 001°36'918.5
2017-Sep-15 14:31N 51°14' E 001°46'918.0
2017-Sep-15 14:01N 51°22' E 001°55'917.3
2017-Sep-15 13:31N 51°29' E 002°03'816.8
2017-Sep-15 13:01N 51°35' E 002°13'816.5
2017-Sep-15 12:30N 51°41' E 002°21'6915.1
2017-Sep-15 07:58N 52°36' E 003°29'613.1
2017-Sep-15 07:30N 52°40' E 003°36'713.5
2017-Sep-15 07:00N 52°45' E 003°43'713.9
2017-Sep-15 06:30N 52°51' E 003°50'714.0
2017-Sep-15 06:00N 52°56' E 003°58'714.0
2017-Sep-15 05:30N 53°01' E 004°06'713.8
2017-Sep-15 05:00N 53°06' E 004°14'713.9
2017-Sep-15 04:30N 53°11' E 004°23'714.1
2017-Sep-15 04:00N 53°17' E 004°28'713.8
2017-Sep-15 03:30N 53°23' E 004°34'713.0
2017-Sep-15 03:00N 53°28' E 004°40'612.4
2017-Sep-15 02:30N 53°31' E 004°49'612.1
2017-Sep-15 02:00N 53°33' E 004°59'611.7
2017-Sep-15 01:30N 53°35' E 005°08'611.5
2017-Sep-15 00:58N 53°38' E 005°18'611.5
2017-Sep-15 00:28N 53°40' E 005°27'10113.1
2017-Sep-14 16:42N 54°01' E 008°15'211.3
2017-Sep-14 16:30N 53°60' E 008°18'714.0
2017-Sep-14 16:00N 53°59' E 008°30'713.4
2017-Sep-14 15:30N 53°56' E 008°40'611.7
2017-Sep-14 15:00N 53°51' E 008°46'612.3
2017-Sep-14 14:30N 53°51' E 008°57'713.1
2017-Sep-14 14:01N 53°53' E 009°07'1 2.3
2017-Sep-14 13:30N 53°54' E 009°09'1 2.0
2017-Sep-14 13:00N 53°54' E 009°10'4 8.0
2017-Sep-14 12:30N 53°57' E 009°14'4 8.1
2017-Sep-14 12:00N 54°01' E 009°18'4 8.4
2017-Sep-14 11:30N 54°05' E 009°19'4 8.0
2017-Sep-14 11:00N 54°09' E 009°21'1 2.8
2017-Sep-14 10:30N 54°09' E 009°23'3 6.2
2017-Sep-14 10:00N 54°11' E 009°28'4 7.6
2017-Sep-14 09:29N 54°12' E 009°34'25 0.8
2017-Sep-13 04:01N 54°24' E 010°12'010.1
2017-Sep-13 04:00N 54°24' E 010°12'613.1
2017-Sep-13 03:30N 54°30' E 010°17'510.8
2017-Sep-13 03:00N 54°32' E 010°26'612.2
2017-Sep-13 02:30N 54°35' E 010°35'613.0
2017-Sep-13 02:00N 54°35' E 010°46'713.2
2017-Sep-13 01:30N 54°36' E 010°58'713.1
2017-Sep-13 01:00N 54°36' E 011°09'815.1
2017-Sep-13 00:30N 54°33' E 011°21'816.6
2017-Sep-13 00:00N 54°30' E 011°34'815.5
2017-Sep-12 23:31N 54°27' E 011°46'815.6
2017-Sep-12 23:00N 54°26' E 011°59'713.9
2017-Sep-12 22:30N 54°29' E 012°11'915.7
2017-Sep-12 21:56N 54°37' E 012°15'1016.4
2017-Sep-12 21:17N 54°46' E 012°26'616.2
2017-Sep-12 20:55N 54°51' E 012°31'716.3
2017-Sep-12 20:30N 54°57' E 012°37'816.4
2017-Sep-12 20:00N 55°05' E 012°38'816.5
2017-Sep-12 19:30N 55°13' E 012°38'816.3
2017-Sep-12 19:01N 55°21' E 012°38'816.0
2017-Sep-12 18:31N 55°29' E 012°41'713.2
2017-Sep-12 18:00N 55°36' E 012°42'611.9
2017-Sep-12 17:30N 55°42' E 012°41'3 5.4
2017-Sep-12 17:00N 55°42' E 012°36'1 1.5
2017-Sep-12 16:29N 55°41' E 012°36'0 0.0
2017-Sep-12 15:59N 55°41' E 012°36'0 0.0
2017-Sep-12 15:29N 55°41' E 012°36'0 0.0
2017-Sep-12 14:59N 55°41' E 012°36'0 0.0
2017-Sep-12 14:29N 55°41' E 012°36'0 0.0
2017-Sep-12 13:59N 55°41' E 012°36'0 0.0
2017-Sep-12 13:29N 55°41' E 012°36'0 0.0
2017-Sep-12 12:59N 55°41' E 012°36'0 0.0
2017-Sep-12 12:29N 55°41' E 012°36'0 0.0
2017-Sep-12 11:59N 55°41' E 012°36'0 0.0
2017-Sep-12 11:29N 55°41' E 012°36'0 0.0
2017-Sep-12 10:59N 55°41' E 012°36'0 0.0
2017-Sep-12 10:29N 55°41' E 012°36'0 0.0
2017-Sep-12 10:00N 55°41' E 012°36'1 1.1
2017-Sep-12 09:30N 55°42' E 012°36'2 4.5
2017-Sep-12 09:00N 55°44' E 012°39'613.0
2017-Sep-12 08:30N 55°50' E 012°42'815.6
2017-Sep-12 08:00N 55°57' E 012°37'714.4
2017-Sep-12 07:30N 56°05' E 012°36'816.5
2017-Sep-12 07:00N 56°10' E 012°25'815.8
2017-Sep-12 06:30N 56°14' E 012°13'815.0
2017-Sep-12 05:59N 56°19' E 012°02'4216.4
2017-Sep-12 03:26N 56°60' E 011°42'716.0
2017-Sep-12 02:58N 57°07' E 011°38'816.3
2017-Sep-12 02:30N 57°14' E 011°33'816.1
2017-Sep-12 02:00N 57°21' E 011°27'816.1
2017-Sep-12 01:30N 57°29' E 011°22'816.1
2017-Sep-12 01:00N 57°36' E 011°18'815.5
2017-Sep-12 00:30N 57°44' E 011°15'815.1
2017-Sep-12 00:00N 57°51' E 011°11'815.3
2017-Sep-11 23:30N 57°59' E 011°07'815.9
2017-Sep-11 23:00N 58°07' E 011°03'815.6
2017-Sep-11 22:30N 58°14' E 010°60'815.3
2017-Sep-11 22:00N 58°21' E 010°56'815.1
2017-Sep-11 21:30N 58°29' E 010°53'714.9
2017-Sep-11 21:00N 58°36' E 010°49'714.2
2017-Sep-11 20:31N 58°43' E 010°45'815.4
2017-Sep-11 20:01N 58°50' E 010°41'815.4
2017-Sep-11 19:31N 58°58' E 010°38'815.6
2017-Sep-11 19:00N 59°05' E 010°35'5 9.5
2017-Sep-11 18:30N 59°10' E 010°37'816.2
2017-Sep-11 18:01N 59°18' E 010°35'816.2
2017-Sep-11 17:30N 59°26' E 010°32'816.3
2017-Sep-11 17:00N 59°34' E 010°37'714.4
2017-Sep-11 16:30N 59°41' E 010°37'611.3
2017-Sep-11 16:00N 59°46' E 010°33'713.4
2017-Sep-11 15:30N 59°52' E 010°39'3 6.8
2017-Sep-11 15:00N 59°54' E 010°44'0 0.0
2017-Sep-11 14:30N 59°54' E 010°44'0 0.0
2017-Sep-11 14:00N 59°54' E 010°44'0 0.0
2017-Sep-11 13:24N 59°54' E 010°44'0 0.0
2017-Sep-11 13:00N 59°54' E 010°44'0 0.0
2017-Sep-11 12:30N 59°54' E 010°44'0 0.0
2017-Sep-11 12:00N 59°54' E 010°44'0 0.0
2017-Sep-11 11:30N 59°54' E 010°44'0 0.0
2017-Sep-11 11:00N 59°54' E 010°44'0 0.0
2017-Sep-11 10:30N 59°54' E 010°44'0 0.0
2017-Sep-11 10:00N 59°54' E 010°44'0 0.0
2017-Sep-11 09:30N 59°54' E 010°44'0 0.0
2017-Sep-11 09:00N 59°54' E 010°44'0 0.0
2017-Sep-11 08:30N 59°54' E 010°44'0 0.0
2017-Sep-11 08:00N 59°54' E 010°44'0 0.0
2017-Sep-11 07:30N 59°54' E 010°44'0 0.0
2017-Sep-11 07:00N 59°54' E 010°44'0 0.0
2017-Sep-11 06:30N 59°54' E 010°44'0 0.0
2017-Sep-11 06:00N 59°54' E 010°44'0 0.2
2017-Sep-11 05:30N 59°54' E 010°44'3 5.8
2017-Sep-11 05:00N 59°53' E 010°39'611.0
2017-Sep-11 04:30N 59°48' E 010°35'612.2
2017-Sep-11 04:00N 59°42' E 010°36'612.8
2017-Sep-11 03:30N 59°35' E 010°38'815.5
2017-Sep-11 03:00N 59°28' E 010°34'816.6
2017-Sep-11 02:30N 59°20' E 010°36'917.6
2017-Sep-11 02:00N 59°11' E 010°39'714.6
2017-Sep-11 01:31N 59°04' E 010°35'510.8
2017-Sep-11 01:00N 58°59' E 010°33'611.4
2017-Sep-11 00:30N 58°54' E 010°26'612.3
2017-Sep-11 00:00N 58°49' E 010°19'611.7
2017-Sep-10 23:30N 58°44' E 010°12'4312.5
2017-Sep-10 20:03N 58°09' E 009°25'112.1
2017-Sep-10 19:57N 58°08' E 009°24'16014.5
2017-Sep-10 08:55N 55°43' E 007°20'716.8
2017-Sep-10 08:30N 55°36' E 007°22'817.0
2017-Sep-10 08:00N 55°28' E 007°25'816.9
2017-Sep-10 07:30N 55°19' E 007°29'816.8
2017-Sep-10 07:00N 55°11' E 007°31'816.8
2017-Sep-10 06:30N 55°03' E 007°32'817.0
2017-Sep-10 06:00N 54°54' E 007°32'817.0
2017-Sep-10 05:30N 54°46' E 007°32'1117.3
2017-Sep-10 04:54N 54°35' E 007°32'1417.3
2017-Sep-10 04:03N 54°21' E 007°32'217.6
2017-Sep-10 03:58N 54°19' E 007°34'817.6
2017-Sep-10 03:30N 54°12' E 007°40'916.9
2017-Sep-10 03:00N 54°06' E 007°51'816.9
2017-Sep-10 02:30N 54°02' E 008°03'714.0
2017-Sep-10 02:00N 54°00' E 008°15'714.7
2017-Sep-10 01:30N 53°59' E 008°27'815.6
2017-Sep-10 01:00N 53°56' E 008°39'612.8
2017-Sep-10 00:31N 53°51' E 008°45'  

Dump ship's entire track history